Time;durP1;ratioP1;P1;durP2;ratioP2;P2;SDS_P1;SDS_P2;PMS_P1;PMS_P2;Temp;Humidity;BMP_temperature;BMP_pressure;BME280_temperature;BME280_humidity;BME280_pressure;Samples;Min_cycle;Max_cycle;Signal;HPM_P1;HPM_P2
2022/12/30 00:04:12;;;;;;;5.13;2.28;;;;;;;8.74;75.30;99857.22;10403800;28;20048;-50
2022/12/30 00:09:14;;;;;;;5.93;2.30;;;;;;;8.75;75.38;99853.59;10402818;28;20070;-49
2022/12/30 00:35:41;;;;;;;7.03;2.42;;;;;;;8.51;74.74;99871.44;10407021;28;20689;-50
2022/12/30 00:43:07;;;;;;;7.13;2.15;;;;;;;8.43;74.55;99886.09;10413849;28;20094;-49
2022/12/30 00:46:05;;;;;;;8.10;2.13;;;;;;;8.42;74.29;99878.25;10407478;28;20067;-48
2022/12/30 00:56:26;;;;;;;5.78;1.73;;;;;;;8.39;74.28;99910.31;10409267;28;20778;-48
2022/12/30 01:01:28;;;;;;;9.85;2.03;;;;;;;8.36;74.39;99908.78;10405198;28;20056;-48
2022/12/30 01:06:30;;;;;;;8.02;2.05;;;;;;;8.30;74.59;99906.56;10402015;28;20053;-49
2022/12/30 01:11:32;;;;;;;7.20;1.83;;;;;;;8.33;74.57;99914.28;10404769;28;20064;-48
2022/12/30 01:16:34;;;;;;;7.03;3.05;;;;;;;8.32;74.26;99924.06;10411826;28;20071;-49
2022/12/30 01:21:35;;;;;;;6.45;2.15;;;;;;;8.31;74.10;99929.50;10412605;28;20154;-49
2022/12/30 01:26:37;;;;;;;6.32;2.03;;;;;;;8.26;74.13;99934.31;10408118;28;20479;-48
2022/12/30 01:31:38;;;;;;;8.40;1.77;;;;;;;8.31;74.54;99935.63;10404793;28;20059;-48
2022/12/30 01:36:40;;;;;;;6.47;2.20;;;;;;;8.32;74.40;99944.44;10405469;28;20052;-48
2022/12/30 01:41:41;;;;;;;6.50;1.90;;;;;;;8.30;74.19;99938.41;10402189;28;20514;-49
2022/12/30 01:46:43;;;;;;;9.25;3.03;;;;;;;8.24;74.28;99949.47;10405604;28;20051;-49
2022/12/30 01:51:44;;;;;;;7.57;2.60;;;;;;;8.24;74.41;99965.38;10402280;28;20073;-49
2022/12/30 01:56:46;;;;;;;8.35;1.90;;;;;;;8.22;74.67;99985.88;10412265;28;20052;-49
2022/12/30 02:01:48;;;;;;;9.70;2.42;;;;;;;8.19;74.68;99970.19;10397467;28;20443;-49
2022/12/30 02:06:58;;;;;;;6.68;2.65;;;;;;;8.16;74.85;99983.69;10403616;28;20111;-49
2022/12/30 02:12:01;;;;;;;4.22;1.60;;;;;;;8.06;75.29;99972.91;10407498;28;20048;-49
2022/12/30 02:17:22;;;;;;;4.35;1.70;;;;;;;7.96;75.54;99972.75;10403968;28;20060;-49
2022/12/30 02:22:37;;;;;;;10.25;2.10;;;;;;;7.86;76.22;99977.03;10405517;28;20040;-53
2022/12/30 02:28:05;;;;;;;;;;;;;;;7.87;76.52;99986.69;10403132;28;20036;-49
2022/12/30 02:33:31;;;;;;;6.93;2.28;;;;;;;7.82;76.44;100002.94;10410323;28;20368;-49
2022/12/30 02:38:35;;;;;;;7.10;1.75;;;;;;;7.73;76.48;99998.28;10406527;28;20785;-49
2022/12/30 02:49:03;;;;;;;9.68;1.70;;;;;;;7.65;77.57;99984.75;10400454;28;20122;-49
2022/12/30 02:54:04;;;;;;;8.82;2.42;;;;;;;7.50;78.00;99976.94;10396108;28;20720;-49
2022/12/30 03:04:51;;;;;;;7.72;2.42;;;;;;;7.47;79.60;100002.81;10399835;28;20077;-49
2022/12/30 03:15:35;;;;;;;8.73;1.87;;;;;;;7.43;80.64;100013.63;10403167;28;20616;-51
2022/12/30 03:20:41;;;;;;;4.93;2.10;;;;;;;7.43;81.48;100008.34;10396232;28;20053;-49
2022/12/30 03:31:11;;;;;;;7.40;2.38;;;;;;;7.42;82.29;100032.28;10400898;28;20640;-49
2022/12/30 03:36:26;;;;;;;3.97;1.58;;;;;;;7.33;82.99;100031.13;10406338;28;20048;-48
2022/12/30 03:41:30;;;;;;;7.68;1.95;;;;;;;7.30;83.17;100023.41;10400746;28;20478;-49
2022/12/30 03:46:32;;;;;;;7.45;2.90;;;;;;;7.24;83.59;100015.91;10395539;28;20119;-49
2022/12/30 03:51:34;;;;;;;4.82;1.80;;;;;;;7.23;83.78;100008.91;10402727;28;20527;-48
2022/12/30 03:56:36;;;;;;;6.22;1.73;;;;;;;7.21;83.88;100008.16;10404472;28;20053;-49
2022/12/30 04:01:37;;;;;;;7.72;2.20;;;;;;;7.16;84.33;100010.28;10408806;28;20147;-48
2022/12/30 04:06:39;;;;;;;7.15;2.40;;;;;;;7.08;84.78;100019.59;10399107;28;20072;-48
2022/12/30 04:11:40;;;;;;;8.93;2.65;;;;;;;7.11;84.74;100028.28;10404234;28;20033;-48
2022/12/30 04:16:42;;;;;;;6.47;2.05;;;;;;;7.08;84.44;100032.00;10399468;28;20064;-49
2022/12/30 04:21:43;;;;;;;6.97;2.63;;;;;;;7.10;84.25;100031.88;10405909;28;20053;-48
2022/12/30 04:26:45;;;;;;;9.25;3.00;;;;;;;7.02;84.13;100020.03;10410078;28;20075;-49
2022/12/30 04:31:47;;;;;;;8.25;4.30;;;;;;;7.12;84.27;100032.66;10407832;28;20595;-49
2022/12/30 04:36:48;;;;;;;8.73;3.42;;;;;;;7.20;83.74;100051.47;10395261;28;20049;-49
2022/12/30 04:41:50;;;;;;;6.43;2.00;;;;;;;7.32;83.57;100053.25;10402585;28;20513;-49
2022/12/30 04:46:51;;;;;;;9.73;2.65;;;;;;;7.48;83.09;100052.19;10395547;28;20737;-49
2022/12/30 04:51:53;;;;;;;6.43;2.10;;;;;;;7.50;83.01;100045.81;10408981;28;20107;-49
2022/12/30 04:56:54;;;;;;;9.27;2.03;;;;;;;7.59;82.60;100039.84;10415596;28;20053;-50
2022/12/30 05:01:56;;;;;;;8.07;2.92;;;;;;;7.56;82.92;100029.47;10404303;28;20087;-49
2022/12/30 05:06:57;;;;;;;9.27;3.00;;;;;;;7.65;82.37;100033.28;10403142;28;20127;-49
2022/12/30 05:11:59;;;;;;;7.50;2.05;;;;;;;7.70;82.02;100028.50;10397429;28;20060;-49
2022/12/30 05:17:02;;;;;;;4.70;1.75;;;;;;;7.59;81.68;100007.22;10407385;28;20049;-49
2022/12/30 05:22:03;;;;;;;9.60;2.97;;;;;;;7.79;81.68;100046.38;10402803;28;20044;-49
2022/12/30 05:27:05;;;;;;;8.32;2.53;;;;;;;7.90;81.46;100048.25;10405198;28;21164;-49
2022/12/30 05:32:06;;;;;;;8.05;2.65;;;;;;;7.79;81.38;100059.63;10401765;28;20076;-49
2022/12/30 05:37:08;;;;;;;7.57;2.17;;;;;;;7.90;81.34;100044.78;10404076;28;20045;-49
2022/12/30 05:42:09;;;;;;;5.88;2.30;;;;;;;7.88;81.56;100047.53;10407920;28;20549;-49
2022/12/30 05:47:10;;;;;;;7.75;2.38;;;;;;;7.82;81.90;100034.72;10400071;28;20057;-49
2022/12/30 05:52:12;;;;;;;7.60;2.10;;;;;;;7.96;81.59;100054.94;10399269;28;20052;-49
2022/12/30 05:57:13;;;;;;;6.75;1.92;;;;;;;7.96;81.59;100054.94;10404223;28;20140;-49
2022/12/30 06:02:15;;;;;;;8.60;2.67;;;;;;;8.02;81.52;100061.59;10410610;28;20052;-49
2022/12/30 06:07:17;;;;;;;8.98;2.63;;;;;;;8.09;81.30;100060.16;10395996;28;20118;-49
2022/12/30 06:12:18;;;;;;;8.88;2.28;;;;;;;7.99;81.07;100048.53;10401165;28;20055;-50
2022/12/30 06:17:19;;;;;;;4.88;2.08;;;;;;;8.06;81.74;100071.84;10395797;28;20065;-49
2022/12/30 06:22:21;;;;;;;11.32;2.83;;;;;;;8.05;81.78;100075.47;10392062;28;20136;-48
2022/12/30 06:27:23;;;;;;;14.38;4.05;;;;;;;8.19;81.65;100076.25;10398927;28;20118;-50
2022/12/30 06:32:24;;;;;;;7.45;2.45;;;;;;;8.23;81.61;100065.31;10404893;28;20068;-49
2022/12/30 06:37:25;;;;;;;7.05;2.28;;;;;;;8.22;81.85;100057.47;10398800;28;20048;-49
2022/12/30 06:42:27;;;;;;;7.82;2.45;;;;;;;8.14;81.68;100040.31;10403487;28;20130;-50
2022/12/30 06:47:29;;;;;;;5.57;2.08;;;;;;;8.16;82.06;100042.00;10397031;28;20059;-50
2022/12/30 06:52:30;;;;;;;6.65;1.98;;;;;;;8.21;82.28;100055.75;10402171;28;20053;-50
2022/12/30 06:57:33;;;;;;;7.40;2.50;;;;;;;8.28;82.37;100054.34;10400610;28;20056;-48
2022/12/30 07:02:34;;;;;;;7.82;2.40;;;;;;;8.22;82.38;100053.00;10392689;28;20052;-50
2022/12/30 07:07:36;;;;;;;6.63;2.28;;;;;;;8.30;82.09;100050.66;10397436;28;20059;-51
2022/12/30 07:12:38;;;;;;;8.27;2.22;;;;;;;8.32;81.80;100055.84;10395755;28;20715;-50
2022/12/30 07:17:39;;;;;;;7.07;2.08;;;;;;;8.39;81.87;100078.28;10397116;28;20417;-49
2022/12/30 07:22:41;;;;;;;5.00;1.88;;;;;;;8.39;81.71;100067.69;10389742;28;20049;-52
2022/12/30 07:27:42;;;;;;;6.60;2.47;;;;;;;8.39;81.51;100062.38;10388535;28;20172;-50
2022/12/30 07:32:44;;;;;;;9.23;2.95;;;;;;;8.34;81.67;100072.47;10398950;28;20065;-50
2022/12/30 07:37:45;;;;;;;6.53;2.70;;;;;;;8.37;81.97;100066.94;10388906;28;20060;-50
2022/12/30 07:42:47;;;;;;;9.70;2.97;;;;;;;8.39;81.39;100059.72;10374934;28;20049;-49
2022/12/30 07:47:51;;;;;;;10.10;2.78;;;;;;;8.38;81.40;100063.34;10370068;28;20048;-49
2022/12/30 07:52:52;;;;;;;9.63;2.10;;;;;;;8.45;81.28;100050.47;10376181;28;20098;-49
2022/12/30 07:57:54;;;;;;;6.72;2.20;;;;;;;8.49;81.19;100055.44;10382119;28;20106;-51
2022/12/30 08:02:56;;;;;;;8.80;2.28;;;;;;;8.67;80.68;100053.19;10382636;28;20048;-49
2022/12/30 08:07:58;;;;;;;6.85;1.67;;;;;;;8.69;80.08;100055.72;10381760;28;20160;-50
2022/12/30 08:12:59;;;;;;;7.68;1.58;;;;;;;8.63;79.98;100041.16;10358005;28;20073;-50
2022/12/30 08:18:01;;;;;;;9.73;2.67;;;;;;;8.65;80.19;100051.66;10374789;28;20044;-49
2022/12/30 08:23:02;;;;;;;7.15;2.28;;;;;;;8.84;79.72;100043.09;10377281;28;20886;-50
2022/12/30 08:28:03;;;;;;;9.48;2.38;;;;;;;8.91;78.46;100039.03;10375166;28;20945;-50
2022/12/30 08:33:05;;;;;;;7.10;2.22;;;;;;;8.77;78.87;100016.22;10372924;28;20106;-60
2022/12/30 08:38:07;;;;;;;7.20;1.92;;;;;;;8.83;79.02;100034.31;10376171;28;20603;-50
2022/12/30 08:43:08;;;;;;;9.15;2.33;;;;;;;8.79;79.70;100032.00;10375810;28;20203;-50
2022/12/30 08:48:10;;;;;;;10.30;2.42;;;;;;;8.83;79.36;100029.00;10371901;28;20064;-50
2022/12/30 08:53:11;;;;;;;8.20;2.05;;;;;;;8.81;78.61;99996.44;10373950;28;20196;-50
2022/12/30 08:58:13;;;;;;;7.93;2.10;;;;;;;8.96;78.74;100007.69;10370609;28;20056;-51
2022/12/30 09:03:14;;;;;;;6.50;1.90;;;;;;;9.14;77.90;100008.06;10370018;28;20126;-50
2022/12/30 09:08:16;;;;;;;5.97;2.47;;;;;;;9.23;77.18;99984.38;10369701;28;20623;-50
2022/12/30 09:13:17;;;;;;;5.13;1.98;;;;;;;9.36;76.75;99977.13;10369840;28;20057;-50
2022/12/30 09:18:19;;;;;;;6.85;1.98;;;;;;;9.48;75.32;99984.09;10377277;28;20555;-49
2022/12/30 09:23:20;;;;;;;8.23;2.00;;;;;;;9.65;74.16;99980.09;10372624;28;20132;-49
2022/12/30 09:28:22;;;;;;;8.40;1.85;;;;;;;9.72;73.39;99962.66;10369812;28;20057;-50
2022/12/30 09:33:23;;;;;;;6.60;2.15;;;;;;;9.75;73.24;99953.59;10373839;28;20064;-49
2022/12/30 09:38:25;;;;;;;5.30;1.65;;;;;;;9.84;72.84;99946.69;10365330;28;20060;-48
2022/12/30 09:43:55;;;;;;;4.53;1.38;;;;;;;9.68;73.30;99920.53;10373356;28;20513;-50
2022/12/30 09:49:18;;;;;;;4.78;1.40;;;;;;;9.85;73.18;99922.66;10369804;28;20282;-50
2022/12/30 09:54:25;;;;;;;7.60;2.30;;;;;;;10.00;72.93;99914.38;10377067;28;20136;-50
2022/12/30 09:59:32;;;;;;;5.40;1.52;;;;;;;9.94;73.52;99909.53;10372932;28;20723;-52
2022/12/30 10:04:35;;;;;;;10.88;7.72;;;;;;;9.95;73.82;99884.66;10373470;28;20484;-53
2022/12/30 10:10:06;;;;;;;6.85;2.10;;;;;;;10.34;73.76;99891.09;10357045;28;20705;-55
2022/12/30 10:15:45;;;;;;;5.38;2.88;;;;;;;10.50;72.95;99871.19;10378079;28;20049;-50
2022/12/30 10:21:06;;;;;;;2.58;1.60;;;;;;;10.69;71.33;99875.72;10374927;28;20064;-48
2022/12/30 10:26:36;;;;;;;4.05;1.38;;;;;;;10.98;69.83;99867.03;10375691;28;20041;-48
2022/12/30 10:31:38;;;;;;;3.20;0.77;;;;;;;11.32;67.64;99862.19;10370125;28;20072;-50
2022/12/30 10:36:56;;;;;;;5.47;0.80;;;;;;;11.79;67.25;99857.03;10361403;28;21939;-50
2022/12/30 10:42:06;;;;;;;4.25;1.20;;;;;;;11.77;66.01;99844.81;10361975;28;20061;-49
2022/12/30 10:47:21;;;;;;;2.15;0.98;;;;;;;11.87;65.01;99840.31;10373024;28;20068;-50
2022/12/30 10:52:23;;;;;;;0.77;0.40;;;;;;;11.92;63.81;99826.53;10369285;28;20843;-50
2022/12/30 10:57:31;;;;;;;5.22;0.95;;;;;;;12.21;63.79;99823.88;10374718;28;20056;-50
2022/12/30 11:02:37;;;;;;;4.07;0.95;;;;;;;12.45;60.88;99798.50;10370552;28;20061;-50
2022/12/30 11:08:05;;;;;;;1.98;0.60;;;;;;;12.74;59.86;99779.66;10373157;28;20721;-50
2022/12/30 11:18:36;;;;;;;1.35;0.47;;;;;;;13.58;57.26;99775.00;10373253;28;20044;-50
2022/12/30 11:23:40;;;;;;;2.63;0.93;;;;;;;12.88;58.52;99754.28;10373096;28;20061;-50
2022/12/30 11:28:58;;;;;;;1.40;0.60;;;;;;;12.45;59.28;99761.13;10377050;28;20045;-49
2022/12/30 11:34:02;;;;;;;2.85;0.55;;;;;;;12.38;59.28;99755.53;10373114;28;20045;-50
2022/12/30 11:39:03;;;;;;;;;;;;;;;12.19;59.56;99772.47;10354323;28;20161;-51
2022/12/30 11:44:11;;;;;;;1.88;0.70;;;;;;;11.49;62.11;99757.56;10372605;28;20011;-51
2022/12/30 11:49:31;;;;;;;1.95;0.75;;;;;;;11.25;63.22;99736.69;10372619;28;20059;-50
2022/12/30 11:54:45;;;;;;;1.02;0.77;;;;;;;10.89;63.48;99739.03;10373638;28;20152;-50
2022/12/30 11:59:50;;;;;;;3.73;0.70;;;;;;;10.77;64.02;99738.31;10374861;28;20049;-50
2022/12/30 12:04:51;;;;;;;1.40;0.63;;;;;;;10.65;64.07;99728.78;10377662;28;20810;-50
2022/12/30 12:10:05;;;;;;;1.33;0.40;;;;;;;10.54;64.45;99726.25;10376681;28;20046;-50
2022/12/30 12:15:28;;;;;;;2.07;0.70;;;;;;;10.51;64.59;99708.72;10372818;28;20055;-50
2022/12/30 12:20:34;;;;;;;2.33;0.85;;;;;;;10.50;64.98;99690.22;10400368;28;20364;-49
2022/12/30 12:25:43;;;;;;;2.80;0.60;;;;;;;10.47;64.40;99679.84;10381643;28;20063;-51
2022/12/30 12:30:53;;;;;;;3.42;0.40;;;;;;;10.20;63.44;99612.97;10381836;28;20052;-52
2022/12/30 12:36:05;;;;;;;2.78;0.50;;;;;;;10.45;63.98;99640.09;10382422;28;20084;-51
2022/12/30 12:41:23;;;;;;;0.68;0.43;;;;;;;10.43;63.54;99636.69;10383138;28;20052;-52
2022/12/30 12:46:34;;;;;;;1.85;0.65;;;;;;;10.17;63.49;99580.50;10381857;28;20321;-53
2022/12/30 12:52:17;;;;;;;2.97;0.43;;;;;;;10.39;63.59;99600.72;10387787;28;21845;-53
2022/12/30 12:57:46;;;;;;;2.85;0.68;;;;;;;10.38;64.73;99588.41;10362780;28;20672;-52
2022/12/30 13:03:13;;;;;;;2.25;0.40;;;;;;;10.39;65.64;99590.09;10377659;28;20055;-52
2022/12/30 13:08:31;;;;;;;2.63;0.65;;;;;;;10.40;66.27;99576.66;10378967;28;20061;-52
2022/12/30 13:13:49;;;;;;;4.97;0.65;;;;;;;10.38;66.78;99559.13;10385554;28;20084;-51
2022/12/30 13:18:52;;;;;;;2.13;0.52;;;;;;;10.36;67.19;99559.28;10380603;28;20049;-51
2022/12/30 13:23:59;;;;;;;2.05;0.45;;;;;;;10.27;67.52;99539.63;10383443;28;20053;-51
2022/12/30 13:29:03;;;;;;;2.70;0.80;;;;;;;10.24;67.55;99528.44;10381517;28;20517;-52
2022/12/30 13:34:33;;;;;;;2.35;0.60;;;;;;;10.23;67.31;99505.47;10374778;28;20045;-52
2022/12/30 13:39:40;;;;;;;1.40;0.60;;;;;;;10.16;67.47;99502.50;10379966;28;20049;-53
2022/12/30 13:44:45;;;;;;;1.42;0.47;;;;;;;10.03;67.50;99484.19;10375741;28;20057;-50
2022/12/30 13:49:49;;;;;;;19.92;17.17;;;;;;;10.08;67.50;99470.47;10381905;28;20045;-55
2022/12/30 13:54:53;;;;;;;3.63;1.50;;;;;;;10.10;67.60;99473.81;10380656;28;20655;-51
2022/12/30 14:00:15;;;;;;;21.15;19.05;;;;;;;10.04;67.46;99467.25;10380152;28;20052;-52
2022/12/30 14:05:55;;;;;;;15.32;12.63;;;;;;;10.05;67.57;99460.94;10378050;28;20057;-53
2022/12/30 14:10:59;;;;;;;10.57;9.57;;;;;;;10.05;67.51;99454.78;10377872;28;20065;-53
2022/12/30 14:16:04;;;;;;;2.13;1.25;;;;;;;10.07;67.50;99443.03;10378445;28;20049;-51
2022/12/30 14:21:09;;;;;;;3.88;1.40;;;;;;;10.09;67.78;99451.72;10386520;28;21770;-50
2022/12/30 14:26:38;;;;;;;1.15;0.70;;;;;;;10.10;68.17;99441.91;10367870;28;20206;-52
2022/12/30 14:31:48;;;;;;;2.20;0.77;;;;;;;10.04;69.91;99437.16;10375211;28;20041;-51
2022/12/30 14:37:12;;;;;;;2.58;1.00;;;;;;;9.98;71.49;99427.09;10374818;28;20041;-51
2022/12/30 14:42:27;;;;;;;2.45;0.90;;;;;;;9.94;73.25;99420.34;10374867;28;20051;-51
2022/12/30 14:47:44;;;;;;;3.33;0.60;;;;;;;9.85;74.11;99406.94;10372364;28;20048;-51
2022/12/30 14:52:53;;;;;;;2.63;0.60;;;;;;;9.66;75.33;99418.38;10378435;28;20177;-54
2022/12/30 14:58:15;;;;;;;3.38;0.70;;;;;;;9.58;78.07;99414.72;10375662;28;20049;-51
2022/12/30 15:03:21;;;;;;;2.67;1.00;;;;;;;9.46;79.73;99404.25;10378997;28;20138;-50
2022/12/30 15:08:24;;;;;;;2.33;1.05;;;;;;;9.36;81.67;99395.41;10380428;28;20057;-50
2022/12/30 15:13:33;;;;;;;2.15;1.00;;;;;;;9.23;82.56;99384.19;10375046;28;20053;-50
2022/12/30 15:18:37;;;;;;;2.83;1.73;;;;;;;9.19;83.36;99363.22;10381200;28;20398;-49
2022/12/30 15:23:38;;;;;;;10.68;9.57;;;;;;;9.12;84.79;99356.78;10377403;28;20576;-47
2022/12/30 15:28:40;;;;;;;14.80;10.38;;;;;;;9.08;84.52;99344.75;10376083;28;20049;-47
2022/12/30 15:34:01;;;;;;;3.83;3.17;;;;;;;9.04;85.51;99340.69;10377692;28;20860;-48
2022/12/30 15:39:06;;;;;;;17.60;15.70;;;;;;;9.01;86.30;99335.66;10376422;28;20143;-48
2022/12/30 15:44:15;;;;;;;8.20;5.93;;;;;;;8.98;86.76;99330.63;10379644;28;20053;-47
2022/12/30 15:49:19;;;;;;;11.05;8.75;;;;;;;9.00;86.72;99326.00;10370748;28;20501;-48
2022/12/30 15:54:33;;;;;;;4.13;3.45;;;;;;;8.92;87.04;99331.19;10383628;28;20055;-49
2022/12/30 15:59:57;;;;;;;3.70;3.40;;;;;;;8.91;88.12;99335.63;10379705;28;20209;-50
2022/12/30 16:05:06;;;;;;;4.45;3.20;;;;;;;8.88;87.61;99337.72;10383423;28;20150;-47
2022/12/30 16:10:14;;;;;;;1.95;1.05;;;;;;;8.93;88.21;99336.34;10401170;28;20057;-50
2022/12/30 16:15:17;;;;;;;1.27;1.17;;;;;;;9.01;88.29;99322.41;10383424;28;20135;-48
2022/12/30 16:20:41;;;;;;;3.65;2.65;;;;;;;9.13;87.46;99321.28;10381687;28;20052;-49
2022/12/30 16:25:48;;;;;;;1.33;1.23;;;;;;;9.05;88.28;99307.84;10381166;28;20157;-49
2022/12/30 16:30:49;;;;;;;3.35;3.08;;;;;;;9.09;88.64;99335.81;10385240;28;20506;-50
2022/12/30 16:36:13;;;;;;;3.20;2.67;;;;;;;9.17;89.11;99329.81;10384532;28;20053;-49
2022/12/30 16:41:23;;;;;;;3.00;2.40;;;;;;;9.16;89.25;99321.03;10383288;28;20126;-48
2022/12/30 16:46:26;;;;;;;4.35;3.95;;;;;;;9.20;90.41;99330.41;10384081;28;20041;-49
2022/12/30 16:51:47;;;;;;;2.83;2.13;;;;;;;9.16;91.18;99330.81;10390416;28;20139;-50
2022/12/30 16:56:50;;;;;;;3.65;3.35;;;;;;;9.23;92.22;99347.03;10382992;28;20562;-55
2022/12/30 17:01:59;;;;;;;12.18;11.25;;;;;;;9.23;92.78;99336.41;10384193;28;20045;-48
2022/12/30 17:07:01;;;;;;;2.90;1.90;;;;;;;9.27;94.75;99337.81;10380411;28;20052;-51
2022/12/30 17:12:04;;;;;;;2.30;2.00;;;;;;;9.35;96.25;99324.66;10379961;28;20056;-51
2022/12/30 17:17:05;;;;;;;7.78;7.18;;;;;;;9.38;98.15;99342.97;10378831;28;20057;-48
2022/12/30 17:22:08;;;;;;;4.80;4.40;;;;;;;9.46;98.68;99343.16;10362517;28;20057;-48
2022/12/30 17:27:21;;;;;;;3.17;2.50;;;;;;;9.50;98.69;99344.56;10380300;28;20056;-49
2022/12/30 17:32:34;;;;;;;4.25;3.20;;;;;;;9.57;99.69;99344.00;10383128;28;21429;-50
2022/12/30 17:37:35;;;;;;;15.32;13.32;;;;;;;9.51;100.00;99340.91;10379500;28;20751;-47
2022/12/30 17:42:37;;;;;;;4.43;4.03;;;;;;;9.57;100.00;99360.75;10377224;28;20421;-48
2022/12/30 17:47:39;;;;;;;7.78;5.13;;;;;;;9.65;100.00;99360.06;10382005;28;20084;-49
2022/12/30 17:52:40;;;;;;;5.60;5.05;;;;;;;9.64;100.00;99361.88;10377668;28;20060;-49
2022/12/30 17:57:42;;;;;;;3.08;2.75;;;;;;;9.65;100.00;99354.75;10370511;28;20151;-50
2022/12/30 18:02:43;;;;;;;4.00;3.20;;;;;;;9.63;100.00;99365.53;10380232;28;20127;-49
2022/12/30 18:07:46;;;;;;;3.67;3.38;;;;;;;9.57;100.00;99339.50;10381599;28;20056;-49
2022/12/30 18:12:47;;;;;;;7.35;6.80;;;;;;;9.73;100.00;99341.63;10386971;28;20048;-50
2022/12/30 18:17:49;;;;;;;4.47;3.33;;;;;;;9.69;100.00;99342.88;10381674;28;20049;-50
2022/12/30 18:22:50;;;;;;;3.72;3.42;;;;;;;9.67;100.00;99350.16;10376510;28;20179;-50
2022/12/30 18:27:51;;;;;;;5.88;5.38;;;;;;;9.69;100.00;99353.50;10380733;28;20053;-50
2022/12/30 18:32:53;;;;;;;3.35;3.13;;;;;;;9.66;100.00;99348.47;10378855;28;21898;-49
2022/12/30 18:37:55;;;;;;;3.70;3.40;;;;;;;9.73;100.00;99346.94;10377082;28;20069;-48
2022/12/30 18:42:56;;;;;;;5.25;4.75;;;;;;;9.81;100.00;99367.50;10376786;28;20076;-48
2022/12/30 18:47:58;;;;;;;4.30;3.90;;;;;;;9.77;100.00;99360.75;10378706;28;20448;-48
2022/12/30 18:53:00;;;;;;;3.75;3.45;;;;;;;9.77;100.00;99360.75;10373092;28;20472;-49
2022/12/30 18:58:02;;;;;;;4.68;4.18;;;;;;;9.85;100.00;99372.38;10380458;28;20187;-51
2022/12/30 19:03:06;;;;;;;4.63;4.22;;;;;;;9.87;100.00;99378.38;10375484;28;20056;-48
2022/12/30 19:08:07;;;;;;;4.00;3.63;;;;;;;9.96;100.00;99389.16;10360931;28;20053;-49
2022/12/30 19:13:17;;;;;;;4.07;3.65;;;;;;;9.94;100.00;99386.66;10383129;28;20037;-48
2022/12/30 19:18:20;;;;;;;4.63;4.22;;;;;;;9.89;100.00;99400.38;10373114;28;20065;-48
2022/12/30 19:23:22;;;;;;;3.97;3.60;;;;;;;9.88;100.00;99388.03;10377846;28;20057;-50
2022/12/30 19:28:23;;;;;;;5.93;4.55;;;;;;;10.02;100.00;99393.91;10382852;28;20053;-48
2022/12/30 19:33:26;;;;;;;5.78;5.25;;;;;;;10.12;100.00;99402.72;10382876;28;20096;-49
2022/12/30 19:38:27;;;;;;;5.97;5.38;;;;;;;10.19;100.00;99405.66;10385821;28;20797;-49
2022/12/30 19:43:28;;;;;;;8.07;7.10;;;;;;;10.25;100.00;99402.44;10389091;28;20141;-49
2022/12/30 19:48:33;;;;;;;6.28;5.45;;;;;;;10.19;100.00;99395.88;10386206;28;20048;-50
2022/12/30 19:53:34;;;;;;;6.75;6.20;;;;;;;10.22;100.00;99402.72;10380045;28;20053;-49
2022/12/30 19:58:37;;;;;;;5.40;4.90;;;;;;;10.22;100.00;99382.28;10387236;28;20177;-49
2022/12/30 20:03:39;;;;;;;5.57;5.07;;;;;;;10.36;100.00;99389.00;10384873;28;20541;-50
2022/12/30 20:08:40;;;;;;;13.65;11.27;;;;;;;10.38;100.00;99392.34;10387319;28;20064;-51
2022/12/30 20:13:43;;;;;;;15.98;14.45;;;;;;;10.39;100.00;99387.91;10380154;28;20144;-51
2022/12/30 20:18:54;;;;;;;6.25;5.65;;;;;;;10.44;100.00;99407.75;10401358;28;20604;-50
2022/12/30 20:23:57;;;;;;;5.15;4.68;;;;;;;10.47;100.00;99409.28;10378394;28;20057;-50
2022/12/30 20:28:59;;;;;;;4.53;4.13;;;;;;;10.56;100.00;99412.91;10384398;28;20048;-49
2022/12/30 20:34:04;;;;;;;7.07;6.47;;;;;;;10.55;100.00;99406.75;10383092;28;20423;-50
2022/12/30 20:39:09;;;;;;;5.20;4.80;;;;;;;10.64;100.00;99433.47;10384745;28;21319;-50
2022/12/30 20:44:12;;;;;;;5.20;4.80;;;;;;;10.77;100.00;99449.97;10385536;28;20064;-50
2022/12/30 20:49:15;;;;;;;9.13;8.30;;;;;;;10.83;100.00;99452.06;10388571;28;20060;-50
2022/12/30 20:54:18;;;;;;;14.93;13.40;;;;;;;10.93;100.00;99455.53;10383670;28;20071;-50
2022/12/30 20:59:19;;;;;;;4.93;4.45;;;;;;;10.97;100.00;99453.41;10387973;28;20053;-49
2022/12/30 21:04:20;;;;;;;5.60;5.10;;;;;;;10.98;100.00;99467.56;10385178;28;20059;-49
2022/12/30 21:09:22;;;;;;;8.85;8.05;;;;;;;11.03;100.00;99460.81;10382499;28;20064;-52
2022/12/30 21:14:23;;;;;;;5.05;4.45;;;;;;;11.07;100.00;99464.03;10383292;28;20472;-49
2022/12/30 21:19:25;;;;;;;6.57;5.97;;;;;;;11.10;100.00;99474.41;10384835;28;20072;-49
2022/12/30 21:24:27;;;;;;;3.92;3.53;;;;;;;11.15;100.00;99458.81;10381155;28;20205;-49
2022/12/30 21:29:28;;;;;;;3.67;3.00;;;;;;;11.15;100.00;99453.47;10382569;28;20052;-49
2022/12/30 21:34:29;;;;;;;4.10;3.75;;;;;;;11.21;100.00;99466.19;10384415;28;20387;-49
2022/12/30 22:06:37;;;;;;;3.75;3.17;;;;;;;11.32;100.00;99487.34;10402717;28;20097;-50
2022/12/30 22:11:39;;;;;;;3.20;2.78;;;;;;;11.36;100.00;99484.38;10406377;28;20150;-50
2022/12/30 22:16:40;;;;;;;2.10;1.90;;;;;;;11.42;100.00;99483.78;10406260;28;20049;-49
2022/12/30 22:21:42;;;;;;;2.22;2.03;;;;;;;11.48;100.00;99492.03;10405119;28;20130;-50
2022/12/30 22:26:43;;;;;;;2.67;1.90;;;;;;;11.56;100.00;99498.44;10409114;28;20061;-49
2022/12/30 22:31:44;;;;;;;3.38;2.00;;;;;;;11.55;100.00;99494.13;10400340;28;20183;-49
2022/12/30 22:36:46;;;;;;;2.50;2.05;;;;;;;11.61;100.00;99491.69;10402459;28;20049;-49
2022/12/30 22:41:55;;;;;;;2.45;1.50;;;;;;;11.63;100.00;99489.72;10405884;28;20036;-49
2022/12/30 22:46:56;;;;;;;2.63;1.27;;;;;;;11.62;100.00;99493.38;10403204;28;21460;-50
2022/12/30 22:51:57;;;;;;;1.52;1.15;;;;;;;11.62;100.00;99488.03;10405061;28;20127;-51
2022/12/30 22:56:59;;;;;;;1.67;1.15;;;;;;;11.71;100.00;99496.09;10415143;28;20151;-50
2022/12/30 23:02:00;;;;;;;0.98;0.85;;;;;;;11.80;100.00;99503.22;10402765;28;20088;-50
2022/12/30 23:07:02;;;;;;;1.23;0.80;;;;;;;11.82;100.00;99504.75;10410893;28;20063;-49
2022/12/30 23:12:05;;;;;;;2.90;1.30;;;;;;;11.85;100.00;99514.28;10408158;28;20218;-49
2022/12/30 23:17:07;;;;;;;1.85;0.80;;;;;;;11.91;100.00;99516.34;10411752;28;20058;-50
2022/12/30 23:25:00;;;;;;;2.22;0.88;;;;;;;11.93;100.00;99522.38;10412482;28;20059;-50
2022/12/30 23:27:32;;;;;;;1.10;0.77;;;;;;;11.98;100.00;99520.13;10403112;28;20047;-50
2022/12/30 23:32:34;;;;;;;1.17;0.73;;;;;;;12.01;100.00;99521.66;10405590;28;20861;-49
2022/12/30 23:37:35;;;;;;;1.40;0.90;;;;;;;12.07;100.00;99529.06;10398708;28;20056;-49
2022/12/30 23:42:37;;;;;;;1.75;0.82;;;;;;;12.10;100.00;99536.75;10423236;28;20075;-50
2022/12/30 23:47:38;;;;;;;1.25;0.70;;;;;;;11.98;100.00;99524.59;10403713;28;20041;-49
2022/12/30 23:52:39;;;;;;;1.42;0.63;;;;;;;12.20;100.00;99555.34;10400096;28;20053;-49
2022/12/30 23:57:41;;;;;;;1.50;0.95;;;;;;;12.20;100.00;99555.34;10406177;28;20041;-49
